createdAt,value
2022-11-30T00:02:20.307Z,22.00
2022-11-30T00:05:07.344Z,23.50
2022-11-30T00:07:54.675Z,23.50
2022-11-30T00:10:42.043Z,22.80
2022-11-30T00:13:28.477Z,23.10
2022-11-30T00:16:15.001Z,21.90
2022-11-30T00:19:04.785Z,21.70
2022-11-30T00:21:51.340Z,22.20
2022-11-30T00:24:38.197Z,22.90
2022-11-30T00:27:24.516Z,24.20
2022-11-30T00:30:11.533Z,21.40
2022-11-30T00:32:58.474Z,22.70
2022-11-30T00:35:55.934Z,21.90
2022-11-30T00:38:43.624Z,20.70
2022-11-30T00:41:29.939Z,21.50
2022-11-30T00:44:16.350Z,21.50
2022-11-30T00:47:03.058Z,21.70
2022-11-30T00:49:49.880Z,21.90
2022-11-30T00:52:36.390Z,21.40
2022-11-30T00:55:23.420Z,20.80
2022-11-30T00:58:10.172Z,24.10
2022-11-30T01:00:56.648Z,22.80
2022-11-30T01:03:43.360Z,19.50
2022-11-30T01:06:30.082Z,20.10
2022-11-30T01:09:16.679Z,20.60
2022-11-30T01:12:03.633Z,21.80
2022-11-30T01:14:49.899Z,36.80
2022-11-30T01:17:37.000Z,29.60
2022-11-30T01:20:23.436Z,31.90
2022-11-30T01:23:10.241Z,21.50
2022-11-30T01:25:57.107Z,21.90
2022-11-30T01:28:44.618Z,22.90
2022-11-30T01:31:31.122Z,23.00
2022-11-30T01:34:17.795Z,24.10
2022-11-30T01:37:04.630Z,25.20
2022-11-30T01:39:51.213Z,27.00
2022-11-30T01:42:38.134Z,24.80
2022-11-30T01:45:24.956Z,25.00
2022-11-30T01:48:11.535Z,26.00
2022-11-30T01:50:58.866Z,25.90
2022-11-30T01:53:45.649Z,25.20
2022-11-30T01:56:32.865Z,25.20
2022-11-30T01:59:22.143Z,25.60
2022-11-30T02:02:09.016Z,26.80
2022-11-30T02:04:56.207Z,24.70
2022-11-30T02:07:43.236Z,27.30
2022-11-30T02:10:32.909Z,27.50
2022-11-30T02:13:40.562Z,25.20
2022-11-30T02:16:36.224Z,26.10
2022-11-30T02:19:45.146Z,25.80
2022-11-30T02:22:52.923Z,25.70
2022-11-30T02:26:09.430Z,26.40
2022-11-30T02:29:06.829Z,26.50
2022-11-30T02:32:15.474Z,26.40
2022-11-30T02:35:07.813Z,24.70
2022-11-30T02:37:55.240Z,25.30
2022-11-30T02:40:41.655Z,24.60
2022-11-30T02:43:30.949Z,25.30
2022-11-30T02:46:30.317Z,25.00
2022-11-30T02:49:48.019Z,26.50
2022-11-30T02:52:35.527Z,25.00
2022-11-30T02:55:22.804Z,26.20
2022-11-30T02:58:09.124Z,25.30
2022-11-30T03:00:55.887Z,25.80
2022-11-30T03:03:42.610Z,27.20
2022-11-30T03:06:29.513Z,27.20
2022-11-30T03:09:16.229Z,26.70
2022-11-30T03:12:02.956Z,26.10
2022-11-30T03:14:49.674Z,26.10
2022-11-30T03:17:36.540Z,26.70
2022-11-30T03:20:23.114Z,27.20
2022-11-30T03:23:10.114Z,28.10
2022-11-30T03:25:59.895Z,26.10
2022-11-30T03:28:46.686Z,26.00
2022-11-30T03:31:33.877Z,27.50
2022-11-30T03:34:20.585Z,26.70
2022-11-30T03:37:07.535Z,26.70
2022-11-30T03:39:58.164Z,24.00
2022-11-30T03:42:45.265Z,24.50
2022-11-30T03:45:32.041Z,24.60
2022-11-30T03:48:18.645Z,25.90
2022-11-30T03:51:05.760Z,25.80
2022-11-30T03:53:52.098Z,28.70
2022-11-30T03:56:38.430Z,29.40
2022-11-30T03:59:25.219Z,30.10
2022-11-30T04:02:12.069Z,30.80
2022-11-30T04:04:58.846Z,26.70
2022-11-30T04:07:45.720Z,27.20
2022-11-30T04:10:32.128Z,26.50
2022-11-30T04:13:20.327Z,25.30
2022-11-30T04:16:07.436Z,28.20
2022-11-30T04:18:54.264Z,27.90
2022-11-30T04:21:40.494Z,27.00
2022-11-30T04:24:26.994Z,27.10
2022-11-30T04:27:13.599Z,26.50
2022-11-30T04:30:00.222Z,25.20
2022-11-30T04:32:46.843Z,24.10
2022-11-30T04:35:33.923Z,25.60
2022-11-30T04:38:20.539Z,25.30
2022-11-30T04:41:10.212Z,25.20
2022-11-30T04:43:56.650Z,27.00
2022-11-30T04:46:43.286Z,24.80
2022-11-30T04:49:29.973Z,24.00
2022-11-30T04:52:16.394Z,22.40
2022-11-30T04:55:06.860Z,24.20
2022-11-30T04:57:53.502Z,22.40
2022-11-30T05:00:40.051Z,24.60
2022-11-30T05:03:26.883Z,24.90
2022-11-30T05:06:13.581Z,23.70
2022-11-30T05:09:00.267Z,23.40
2022-11-30T05:11:48.607Z,23.20
2022-11-30T05:14:35.369Z,23.10
2022-11-30T05:17:21.629Z,23.00
2022-11-30T05:20:09.848Z,23.70
2022-11-30T05:22:57.593Z,23.60
2022-11-30T05:25:44.489Z,23.00
2022-11-30T05:28:31.100Z,23.10
2022-11-30T05:31:17.665Z,23.00
2022-11-30T05:34:04.009Z,22.60
2022-11-30T05:36:50.414Z,22.70
2022-11-30T05:39:36.853Z,23.80
2022-11-30T05:42:23.421Z,22.40
2022-11-30T05:45:10.277Z,23.40
2022-11-30T05:47:56.577Z,25.90
2022-11-30T05:50:43.075Z,23.50
2022-11-30T05:53:29.470Z,24.70
2022-11-30T05:56:18.803Z,23.30
2022-11-30T05:59:05.224Z,23.50
2022-11-30T06:01:52.766Z,23.60
2022-11-30T06:04:39.040Z,23.80
2022-11-30T06:07:25.728Z,25.40
2022-11-30T06:10:12.819Z,28.90
2022-11-30T06:12:59.137Z,25.40
2022-11-30T06:15:45.873Z,23.90
2022-11-30T06:18:33.168Z,23.20
2022-11-30T06:21:24.163Z,26.80
2022-11-30T06:24:11.202Z,25.50
2022-11-30T06:26:57.350Z,26.60
2022-11-30T06:29:44.036Z,25.00
2022-11-30T06:32:30.357Z,25.30
2022-11-30T06:35:17.346Z,25.30
2022-11-30T06:38:03.595Z,25.00
2022-11-30T06:40:50.306Z,28.50
2022-11-30T06:43:37.965Z,25.30
2022-11-30T06:46:25.120Z,25.50
2022-11-30T06:49:11.868Z,24.60
2022-11-30T06:51:58.735Z,24.90
2022-11-30T06:54:45.386Z,25.40
2022-11-30T06:57:32.109Z,24.70
2022-11-30T07:00:19.293Z,25.30
2022-11-30T07:03:06.752Z,25.00
2022-11-30T07:05:54.458Z,28.30
2022-11-30T07:08:41.509Z,25.90
2022-11-30T07:11:27.925Z,37.40
2022-11-30T07:14:14.512Z,33.90
2022-11-30T07:17:05.039Z,34.50
2022-11-30T07:19:51.705Z,27.20
2022-11-30T07:22:38.290Z,28.40
2022-11-30T07:25:43.665Z,27.80
2022-11-30T07:28:30.179Z,25.30
2022-11-30T07:31:31.121Z,26.90
2022-11-30T07:34:17.639Z,24.00
2022-11-30T07:37:04.442Z,23.40
2022-11-30T07:39:50.612Z,23.20
2022-11-30T07:42:37.228Z,24.50
2022-11-30T07:45:23.591Z,24.90
2022-11-30T07:48:10.208Z,25.30
2022-11-30T07:51:05.395Z,25.00
2022-11-30T07:53:52.544Z,25.80
2022-11-30T07:56:40.240Z,26.80
2022-11-30T07:59:26.587Z,25.50
2022-11-30T08:02:13.347Z,25.20
2022-11-30T08:05:00.479Z,27.20
2022-11-30T08:07:51.000Z,28.80
2022-11-30T08:10:38.538Z,26.30
2022-11-30T08:13:25.457Z,25.30
2022-11-30T08:16:18.245Z,26.90
2022-11-30T08:19:06.142Z,24.80
2022-11-30T08:21:52.813Z,26.40
2022-11-30T08:24:39.347Z,27.30
2022-11-30T08:27:26.538Z,25.70
2022-11-30T08:30:13.229Z,25.40
2022-11-30T08:32:59.968Z,23.80
2022-11-30T08:35:46.361Z,23.40
2022-11-30T08:38:32.856Z,24.60
2022-11-30T08:41:21.483Z,25.10
2022-11-30T08:44:07.967Z,22.50
2022-11-30T08:46:54.216Z,21.60
2022-11-30T08:49:40.838Z,23.10
2022-11-30T08:52:27.981Z,20.50
2022-11-30T08:55:14.877Z,19.60
2022-11-30T08:58:01.191Z,19.10
2022-11-30T09:00:47.745Z,21.30
2022-11-30T09:03:34.795Z,22.50
2022-11-30T09:06:28.571Z,20.50
2022-11-30T09:09:14.989Z,20.20
2022-11-30T09:12:01.739Z,19.80
2022-11-30T09:14:52.536Z,18.50
2022-11-30T09:17:44.779Z,16.50
2022-11-30T09:20:34.108Z,18.20
2022-11-30T09:23:20.406Z,17.90
2022-11-30T09:26:09.470Z,16.30
2022-11-30T09:28:55.902Z,16.80
2022-11-30T09:31:42.457Z,16.80
2022-11-30T09:34:29.057Z,17.60
2022-11-30T09:37:15.563Z,18.10
2022-11-30T09:40:02.355Z,17.90
2022-11-30T09:43:02.417Z,19.10
2022-11-30T09:45:56.757Z,19.00
2022-11-30T09:48:55.397Z,18.30
2022-11-30T09:51:47.545Z,19.90
2022-11-30T09:54:40.347Z,20.70
2022-11-30T09:57:31.906Z,20.20
2022-11-30T10:00:24.342Z,21.00
2022-11-30T10:03:11.739Z,19.80
2022-11-30T10:06:11.547Z,18.00
2022-11-30T10:09:23.512Z,18.00
2022-11-30T10:12:22.830Z,16.60
2022-11-30T10:15:31.288Z,18.80
2022-11-30T10:18:40.952Z,19.20
2022-11-30T10:21:44.386Z,16.90
2022-11-30T10:24:40.083Z,21.10
2022-11-30T10:27:32.345Z,22.20
2022-11-30T10:30:39.151Z,17.70
2022-11-30T10:33:37.116Z,17.60
2022-11-30T10:36:36.231Z,17.50
2022-11-30T10:39:31.965Z,18.10
2022-11-30T10:42:28.243Z,17.20
2022-11-30T10:45:19.833Z,16.70
2022-11-30T10:48:15.277Z,17.10
2022-11-30T10:51:04.595Z,18.00
2022-11-30T10:53:51.003Z,16.60
2022-11-30T10:56:37.468Z,18.10
2022-11-30T10:59:46.013Z,18.40
2022-11-30T11:02:41.694Z,16.80
2022-11-30T11:05:31.005Z,18.20
2022-11-30T11:08:25.890Z,19.70
2022-11-30T11:11:38.919Z,16.90
2022-11-30T11:14:28.170Z,16.60
2022-11-30T11:17:17.835Z,16.30
2022-11-30T11:20:27.571Z,14.90
2022-11-30T11:23:27.649Z,16.80
2022-11-30T11:26:28.457Z,15.40
2022-11-30T11:29:33.700Z,16.30
2022-11-30T11:32:27.133Z,16.50
2022-11-30T11:35:34.010Z,17.90
2022-11-30T11:38:21.516Z,17.00
2022-11-30T11:41:26.728Z,17.50
2022-11-30T11:44:13.630Z,16.60
2022-11-30T11:47:05.531Z,17.00
2022-11-30T11:50:04.747Z,17.30
2022-11-30T11:53:25.187Z,16.80
2022-11-30T11:56:21.025Z,16.00
2022-11-30T11:59:10.724Z,17.60
2022-11-30T12:02:19.333Z,18.40
2022-11-30T12:05:17.909Z,18.00
2022-11-30T12:08:25.974Z,19.00
2022-11-30T12:11:44.913Z,16.50
2022-11-30T12:14:35.629Z,18.00
2022-11-30T12:17:35.123Z,16.00
2022-11-30T12:20:36.090Z,17.10
2022-11-30T12:24:08.405Z,17.50
2022-11-30T12:27:04.366Z,17.20
2022-11-30T12:30:27.030Z,20.00
2022-11-30T12:33:26.052Z,20.20
2022-11-30T12:36:40.823Z,18.00
2022-11-30T12:39:50.205Z,21.10
2022-11-30T12:43:01.533Z,19.50
2022-11-30T12:45:50.392Z,17.90
2022-11-30T12:49:05.918Z,20.30
2022-11-30T12:52:03.369Z,20.20
2022-11-30T12:55:00.421Z,19.10
2022-11-30T12:58:27.943Z,18.10
2022-11-30T13:01:29.647Z,17.90
2022-11-30T13:04:37.985Z,21.10
2022-11-30T13:07:29.291Z,18.60
2022-11-30T13:10:32.678Z,20.00
2022-11-30T13:13:26.922Z,19.30
2022-11-30T13:16:14.006Z,19.50
2022-11-30T13:19:39.040Z,18.70
2022-11-30T13:22:50.754Z,20.80
2022-11-30T13:26:10.220Z,18.20
2022-11-30T13:29:04.246Z,18.60
2022-11-30T13:32:06.595Z,19.30
2022-11-30T13:34:53.381Z,17.50
2022-11-30T13:37:39.827Z,17.40
2022-11-30T13:40:26.351Z,15.40
2022-11-30T13:43:21.261Z,17.00
2022-11-30T13:46:13.631Z,18.40
2022-11-30T13:49:31.214Z,17.00
2022-11-30T13:53:00.691Z,16.80
2022-11-30T13:56:08.115Z,17.40
2022-11-30T13:59:25.613Z,17.30
2022-11-30T14:05:49.429Z,16.80
2022-11-30T14:08:38.453Z,17.70
2022-11-30T14:11:43.048Z,18.60
2022-11-30T14:14:45.831Z,18.10
2022-11-30T14:17:36.139Z,17.50
2022-11-30T14:20:26.229Z,18.10
2022-11-30T14:23:19.118Z,18.10
2022-11-30T14:26:37.325Z,20.30
2022-11-30T14:29:42.177Z,20.10
2022-11-30T14:32:42.674Z,17.50
2022-11-30T14:35:33.762Z,19.50
2022-11-30T14:38:32.083Z,17.20
2022-11-30T14:41:26.050Z,16.60
2022-11-30T14:44:14.364Z,15.50
2022-11-30T14:47:19.614Z,16.70
2022-11-30T14:50:06.759Z,16.60
2022-11-30T14:53:20.356Z,16.00
2022-11-30T14:56:28.612Z,16.40
2022-11-30T14:59:45.449Z,15.70
2022-11-30T15:02:39.289Z,17.30
2022-11-30T15:05:27.251Z,17.50
2022-11-30T15:08:16.791Z,18.60
2022-11-30T15:11:11.002Z,18.30
2022-11-30T15:14:08.213Z,18.30
2022-11-30T15:16:58.331Z,17.80
2022-11-30T15:19:48.379Z,17.10
2022-11-30T15:22:35.426Z,17.40
2022-11-30T15:25:25.364Z,17.60
2022-11-30T15:28:17.973Z,19.20
2022-11-30T15:31:09.118Z,17.90
2022-11-30T15:33:56.156Z,17.90
2022-11-30T15:36:42.778Z,18.60
2022-11-30T15:39:30.233Z,18.30
2022-11-30T15:42:26.693Z,18.00
2022-11-30T15:45:29.700Z,18.70
2022-11-30T15:48:37.971Z,18.50
2022-11-30T15:51:24.690Z,21.40
2022-11-30T15:54:11.218Z,19.50
2022-11-30T15:57:09.192Z,19.60
2022-11-30T16:00:16.835Z,19.80
2022-11-30T16:03:08.582Z,21.60
2022-11-30T16:06:00.526Z,20.90
2022-11-30T16:08:47.879Z,18.50
2022-11-30T16:11:35.180Z,17.70
2022-11-30T16:14:22.191Z,17.60
2022-11-30T16:17:10.889Z,17.50
2022-11-30T16:19:57.241Z,16.20
2022-11-30T16:22:45.737Z,16.40
2022-11-30T16:25:32.210Z,17.10
2022-11-30T16:28:20.648Z,17.20
2022-11-30T16:31:07.441Z,15.20
2022-11-30T16:33:53.902Z,16.30
2022-11-30T16:36:42.974Z,15.30
2022-11-30T16:39:29.557Z,15.10
2022-11-30T16:42:15.920Z,14.90
2022-11-30T16:45:02.497Z,13.70
2022-11-30T16:47:49.979Z,13.60
2022-11-30T16:50:37.144Z,12.90
2022-11-30T16:53:31.290Z,12.80
2022-11-30T16:56:18.446Z,11.10
2022-11-30T16:59:05.505Z,11.30
2022-11-30T17:01:53.315Z,10.80
2022-11-30T17:04:40.541Z,11.50
2022-11-30T17:07:27.306Z,11.30
2022-11-30T17:10:17.341Z,9.80
2022-11-30T17:13:05.042Z,9.70
2022-11-30T17:15:51.498Z,10.60
2022-11-30T17:18:37.782Z,9.70
2022-11-30T17:21:28.184Z,9.90
2022-11-30T17:24:15.062Z,10.80
2022-11-30T17:27:01.516Z,11.20
2022-11-30T17:29:48.156Z,12.00
2022-11-30T17:32:35.932Z,13.00
2022-11-30T17:35:25.931Z,11.80
2022-11-30T17:38:23.387Z,13.80
2022-11-30T17:41:19.748Z,11.70
2022-11-30T17:44:06.635Z,10.80
2022-11-30T17:46:54.289Z,11.10
2022-11-30T17:49:42.876Z,10.40
2022-11-30T17:52:30.076Z,10.60
2022-11-30T17:55:16.889Z,9.80
2022-11-30T17:58:03.559Z,10.30
2022-11-30T18:00:51.643Z,10.50
2022-11-30T18:03:39.803Z,10.50
2022-11-30T18:06:27.097Z,10.80
2022-11-30T18:09:28.376Z,11.70
2022-11-30T18:12:15.137Z,12.80
2022-11-30T18:15:01.428Z,12.10
2022-11-30T18:17:52.846Z,11.30
2022-11-30T18:20:53.730Z,10.90
2022-11-30T18:23:49.113Z,11.40
2022-11-30T18:26:39.061Z,10.70
2022-11-30T18:29:25.766Z,11.00
2022-11-30T18:32:12.443Z,10.80
2022-11-30T18:34:59.083Z,11.50
2022-11-30T18:37:45.695Z,11.40
2022-11-30T18:40:32.039Z,11.40
2022-11-30T18:43:18.566Z,12.30
2022-11-30T18:46:07.438Z,11.90
2022-11-30T18:48:54.735Z,13.20
2022-11-30T18:51:43.403Z,13.50
2022-11-30T18:54:31.644Z,13.50
2022-11-30T18:57:18.000Z,12.00
2022-11-30T19:00:05.658Z,11.90
2022-11-30T19:02:52.627Z,12.00
2022-11-30T19:05:41.376Z,10.80
2022-11-30T19:08:35.269Z,12.90
2022-11-30T19:11:35.775Z,11.70
2022-11-30T19:14:24.012Z,11.60
2022-11-30T19:17:11.678Z,12.10
2022-11-30T19:20:00.668Z,13.30
2022-11-30T19:22:49.745Z,13.30
2022-11-30T19:25:37.889Z,14.50
2022-11-30T19:28:38.079Z,14.80
2022-11-30T19:31:29.066Z,14.70
2022-11-30T19:34:15.817Z,15.10
2022-11-30T19:37:02.373Z,16.20
2022-11-30T19:39:51.330Z,15.00
2022-11-30T19:42:38.301Z,14.60
2022-11-30T19:45:25.504Z,14.50
2022-11-30T19:48:17.639Z,14.60
2022-11-30T19:51:17.575Z,15.70
2022-11-30T19:54:05.036Z,15.30
2022-11-30T19:56:51.740Z,16.20
2022-11-30T19:59:38.746Z,17.10
2022-11-30T20:02:32.322Z,17.50
2022-11-30T20:05:19.261Z,17.70
2022-11-30T20:08:06.519Z,16.60
2022-11-30T20:10:53.643Z,18.60
2022-11-30T20:13:40.453Z,18.50
2022-11-30T20:16:27.523Z,18.50
2022-11-30T20:19:15.530Z,19.30
2022-11-30T20:22:04.991Z,18.20
2022-11-30T20:24:55.694Z,16.80
2022-11-30T20:27:42.190Z,18.20
2022-11-30T20:30:30.218Z,17.00
2022-11-30T20:33:16.691Z,16.80
2022-11-30T20:36:08.075Z,19.10
2022-11-30T20:38:57.389Z,17.90
2022-11-30T20:41:47.424Z,16.90
2022-11-30T20:44:35.127Z,15.80
2022-11-30T20:47:25.009Z,19.70
2022-11-30T20:50:11.986Z,17.00
2022-11-30T20:52:58.667Z,18.30
2022-11-30T20:55:45.470Z,17.00
2022-11-30T20:58:32.421Z,14.50
2022-11-30T21:01:22.921Z,14.80
2022-11-30T21:04:12.853Z,13.60
2022-11-30T21:07:01.456Z,12.90
2022-11-30T21:09:48.229Z,11.30
2022-11-30T21:12:34.871Z,12.60
2022-11-30T21:15:21.075Z,11.20
2022-11-30T21:18:08.224Z,11.10
2022-11-30T21:21:02.204Z,11.70
2022-11-30T21:23:50.618Z,11.40
2022-11-30T21:26:40.043Z,12.30
2022-11-30T21:29:26.870Z,14.20
2022-11-30T21:32:14.660Z,12.10
2022-11-30T21:35:04.065Z,16.80
2022-11-30T21:38:16.909Z,13.60
2022-11-30T21:41:04.676Z,13.60
2022-11-30T21:43:50.996Z,14.00
2022-11-30T21:46:37.305Z,14.20
2022-11-30T21:49:26.973Z,14.80
2022-11-30T21:52:13.419Z,15.00
2022-11-30T21:54:59.996Z,18.70
2022-11-30T21:57:46.424Z,20.90
2022-11-30T22:00:34.033Z,21.60
2022-11-30T22:03:22.907Z,19.30
2022-11-30T22:06:12.341Z,25.30
2022-11-30T22:09:03.509Z,19.00
2022-11-30T22:11:50.251Z,19.00
2022-11-30T22:14:36.693Z,18.60
2022-11-30T22:17:23.330Z,19.10
2022-11-30T22:20:10.522Z,21.40
2022-11-30T22:22:56.904Z,18.30
2022-11-30T22:25:43.480Z,20.30
2022-11-30T22:28:30.010Z,18.70
2022-11-30T22:31:19.050Z,17.20
2022-11-30T22:34:06.660Z,16.10
2022-11-30T22:36:53.067Z,16.40
2022-11-30T22:39:40.393Z,16.20
2022-11-30T22:42:27.095Z,15.60
2022-11-30T22:45:13.796Z,15.00
2022-11-30T22:48:00.389Z,15.30
2022-11-30T22:50:46.971Z,15.90
2022-11-30T22:53:35.137Z,15.90
2022-11-30T22:56:27.696Z,15.10
2022-11-30T22:59:15.749Z,16.30
2022-11-30T23:02:04.318Z,14.90
2022-11-30T23:04:51.276Z,15.20
2022-11-30T23:07:38.020Z,28.80
2022-11-30T23:10:24.696Z,29.40
2022-11-30T23:13:11.513Z,17.30
2022-11-30T23:15:59.971Z,15.40
2022-11-30T23:18:55.578Z,17.70
2022-11-30T23:21:44.854Z,17.40
2022-11-30T23:24:31.854Z,17.20
2022-11-30T23:27:18.558Z,17.20
2022-11-30T23:30:06.040Z,18.20
2022-11-30T23:32:55.339Z,16.80
2022-11-30T23:35:45.391Z,17.90
2022-11-30T23:38:32.268Z,16.30
2022-11-30T23:41:19.131Z,16.60
2022-11-30T23:44:06.179Z,18.90
2022-11-30T23:46:52.776Z,16.20
2022-11-30T23:49:39.253Z,16.50
2022-11-30T23:52:25.842Z,15.80
2022-11-30T23:55:12.431Z,15.30
2022-11-30T23:57:59.147Z,16.10
